SCBA/BBA METAR and TAF weather

Enter ICAO airport designator
Station Type Date Time Source
SCBA METAR 2019/05/19 06:00 UTC NOAA

SCBA 190600Z AUTO 32018KT CAVOK 05/M01 Q1012


Station Type Date Time Source
SCBA Decoded METAR 2019/05/19 06:00 UTC NOAA

Balmaceda, Chile (SCBA) 45-55S 071-41W 520M
May 19, 2019 - 02:00 AM EDT / 2019.05.19 0600 UTC
Wind: from the NW (320 degrees) at 21 MPH (18 KT):0
Visibility: greater than 7 mile(s):0
Temperature: 41 F (5 C)
Dew Point: 30 F (-1 C)
Relative Humidity: 65%
Pressure (altimeter): 29.88 in. Hg (1012 hPa)
ob: SCBA 190600Z AUTO 32018KT CAVOK 05/M01 Q1012
cycle: 6

Station Type Date Time Source
SCBA TAF 2019/05/19 06:03 UTC NOAA

TAF SCBA 190410Z 1906/2006 31023KT CAVOK TN00/1912Z TX07/1918Z
TEMPO 1906/1913 BKN035
BECMG 1912/1913 32010KT BKN035
BECMG 1914/1916 SCT035
BECMG 1917/1919 30015KT FEW040 SCT070
BECMG 1920/1922 30007KT CAVOK
BECMG 2001/2003 27004KT

Example: see airport list